sensor_id;sensor_type;location;lat;lon;timestamp;temperature;humidity
32769;DHT22;23049;54.304;8.826;2022-07-01T00:00:50;20.40;99.90
32769;DHT22;23049;54.304;8.826;2022-07-01T00:03:15;20.40;99.90
32769;DHT22;23049;54.304;8.826;2022-07-01T00:05:42;20.40;99.90
32769;DHT22;23049;54.304;8.826;2022-07-01T00:08:08;20.40;99.90
32769;DHT22;23049;54.304;8.826;2022-07-01T00:10:34;20.50;99.90
32769;DHT22;23049;54.304;8.826;2022-07-01T00:13:01;20.50;99.90
32769;DHT22;23049;54.304;8.826;2022-07-01T00:15:27;20.60;99.90
32769;DHT22;23049;54.304;8.826;2022-07-01T00:17:52;20.60;99.90
32769;DHT22;23049;54.304;8.826;2022-07-01T00:20:18;20.60;99.90
32769;DHT22;23049;54.304;8.826;2022-07-01T00:22:44;20.60;99.90
32769;DHT22;23049;54.304;8.826;2022-07-01T00:25:10;20.60;99.90
32769;DHT22;23049;54.304;8.826;2022-07-01T00:27:39;20.50;99.90
32769;DHT22;23049;54.304;8.826;2022-07-01T00:30:06;20.40;99.90
32769;DHT22;23049;54.304;8.826;2022-07-01T00:32:32;20.50;99.90
32769;DHT22;23049;54.304;8.826;2022-07-01T00:34:58;20.40;99.90
32769;DHT22;23049;54.304;8.826;2022-07-01T00:37:24;20.40;99.90
32769;DHT22;23049;54.304;8.826;2022-07-01T00:39:49;20.30;99.90
32769;DHT22;23049;54.304;8.826;2022-07-01T00:42:15;20.20;99.90
32769;DHT22;23049;54.304;8.826;2022-07-01T00:44:40;20.30;99.90
32769;DHT22;23049;54.304;8.826;2022-07-01T00:47:11;20.20;99.90
32769;DHT22;23049;54.304;8.826;2022-07-01T00:49:38;20.10;99.90
32769;DHT22;23049;54.304;8.826;2022-07-01T00:52:07;19.90;99.90
32769;DHT22;23049;54.304;8.826;2022-07-01T00:54:35;19.70;99.90
32769;DHT22;23049;54.304;8.826;2022-07-01T00:57:09;19.60;99.90
32769;DHT22;23049;54.304;8.826;2022-07-01T00:59:36;19.60;99.90
32769;DHT22;23049;54.304;8.826;2022-07-01T01:02:03;19.60;99.90
32769;DHT22;23049;54.304;8.826;2022-07-01T01:04:28;19.60;99.90
32769;DHT22;23049;54.304;8.826;2022-07-01T01:06:54;19.60;99.90
32769;DHT22;23049;54.304;8.826;2022-07-01T01:09:20;19.70;99.90
32769;DHT22;23049;54.304;8.826;2022-07-01T01:11:45;19.90;99.90
32769;DHT22;23049;54.304;8.826;2022-07-01T01:14:11;19.80;99.90
32769;DHT22;23049;54.304;8.826;2022-07-01T01:16:37;19.90;99.90
32769;DHT22;23049;54.304;8.826;2022-07-01T01:19:07;20.10;99.90
32769;DHT22;23049;54.304;8.826;2022-07-01T01:21:35;20.00;99.90
32769;DHT22;23049;54.304;8.826;2022-07-01T01:24:01;20.10;99.90
32769;DHT22;23049;54.304;8.826;2022-07-01T01:26:28;20.10;99.90
32769;DHT22;23049;54.304;8.826;2022-07-01T01:28:53;20.20;99.90
32769;DHT22;23049;54.304;8.826;2022-07-01T01:31:28;20.20;99.90
32769;DHT22;23049;54.304;8.826;2022-07-01T01:34:03;20.20;99.90
32769;DHT22;23049;54.304;8.826;2022-07-01T01:36:29;20.30;99.90
32769;DHT22;23049;54.304;8.826;2022-07-01T01:38:55;20.20;99.90
32769;DHT22;23049;54.304;8.826;2022-07-01T01:41:36;20.20;99.90
32769;DHT22;23049;54.304;8.826;2022-07-01T01:44:01;20.20;99.90
32769;DHT22;23049;54.304;8.826;2022-07-01T01:46:27;20.30;99.90
32769;DHT22;23049;54.304;8.826;2022-07-01T01:48:55;20.30;99.90
32769;DHT22;23049;54.304;8.826;2022-07-01T01:51:21;20.50;99.90
32769;DHT22;23049;54.304;8.826;2022-07-01T01:53:47;20.40;99.90
32769;DHT22;23049;54.304;8.826;2022-07-01T01:56:13;20.30;99.90
32769;DHT22;23049;54.304;8.826;2022-07-01T01:58:38;20.20;99.90
32769;DHT22;23049;54.304;8.826;2022-07-01T02:01:09;20.30;99.90
32769;DHT22;23049;54.304;8.826;2022-07-01T02:03:36;20.30;99.90
32769;DHT22;23049;54.304;8.826;2022-07-01T02:06:03;20.10;99.90
32769;DHT22;23049;54.304;8.826;2022-07-01T02:08:28;20.00;99.90
32769;DHT22;23049;54.304;8.826;2022-07-01T02:10:54;20.00;99.90
32769;DHT22;23049;54.304;8.826;2022-07-01T02:13:20;20.00;99.90
32769;DHT22;23049;54.304;8.826;2022-07-01T02:15:46;20.00;99.90
32769;DHT22;23049;54.304;8.826;2022-07-01T02:18:12;19.90;99.90
32769;DHT22;23049;54.304;8.826;2022-07-01T02:20:37;19.70;99.90
32769;DHT22;23049;54.304;8.826;2022-07-01T02:23:03;19.80;99.90
32769;DHT22;23049;54.304;8.826;2022-07-01T02:25:29;19.80;99.90
32769;DHT22;23049;54.304;8.826;2022-07-01T02:27:55;19.80;99.90
32769;DHT22;23049;54.304;8.826;2022-07-01T02:30:20;20.00;99.90
32769;DHT22;23049;54.304;8.826;2022-07-01T02:32:46;20.00;99.90
32769;DHT22;23049;54.304;8.826;2022-07-01T02:35:12;20.10;99.90
32769;DHT22;23049;54.304;8.826;2022-07-01T02:37:39;20.10;99.90
32769;DHT22;23049;54.304;8.826;2022-07-01T02:40:05;20.10;99.90
32769;DHT22;23049;54.304;8.826;2022-07-01T02:42:31;20.10;99.90
32769;DHT22;23049;54.304;8.826;2022-07-01T02:45:04;20.20;99.90
32769;DHT22;23049;54.304;8.826;2022-07-01T02:47:37;20.00;99.90
32769;DHT22;23049;54.304;8.826;2022-07-01T02:50:04;19.90;99.90
32769;DHT22;23049;54.304;8.826;2022-07-01T02:52:30;19.70;99.90
32769;DHT22;23049;54.304;8.826;2022-07-01T02:54:56;19.60;99.90
32769;DHT22;23049;54.304;8.826;2022-07-01T02:57:22;19.60;99.90
32769;DHT22;23049;54.304;8.826;2022-07-01T02:59:48;19.60;99.90
32769;DHT22;23049;54.304;8.826;2022-07-01T03:02:13;19.60;99.90
32769;DHT22;23049;54.304;8.826;2022-07-01T03:04:39;19.60;99.90
32769;DHT22;23049;54.304;8.826;2022-07-01T03:07:05;19.50;99.90
32769;DHT22;23049;54.304;8.826;2022-07-01T03:09:31;19.40;99.90
32769;DHT22;23049;54.304;8.826;2022-07-01T03:11:59;19.40;99.90
32769;DHT22;23049;54.304;8.826;2022-07-01T03:14:25;19.30;99.90
32769;DHT22;23049;54.304;8.826;2022-07-01T03:16:50;19.20;99.90
32769;DHT22;23049;54.304;8.826;2022-07-01T03:19:17;19.10;99.90
32769;DHT22;23049;54.304;8.826;2022-07-01T03:21:42;19.10;99.90
32769;DHT22;23049;54.304;8.826;2022-07-01T03:24:08;19.10;99.90
32769;DHT22;23049;54.304;8.826;2022-07-01T03:26:34;19.00;99.90
32769;DHT22;23049;54.304;8.826;2022-07-01T03:28:59;18.80;99.90
32769;DHT22;23049;54.304;8.826;2022-07-01T03:31:26;18.80;99.90
32769;DHT22;23049;54.304;8.826;2022-07-01T03:33:51;18.80;99.90
32769;DHT22;23049;54.304;8.826;2022-07-01T03:36:17;18.70;99.90
32769;DHT22;23049;54.304;8.826;2022-07-01T03:38:44;18.70;99.90
32769;DHT22;23049;54.304;8.826;2022-07-01T03:41:09;18.70;99.90
32769;DHT22;23049;54.304;8.826;2022-07-01T03:43:35;18.60;99.90
32769;DHT22;23049;54.304;8.826;2022-07-01T03:46:01;18.50;99.90
32769;DHT22;23049;54.304;8.826;2022-07-01T03:48:26;18.50;99.90
32769;DHT22;23049;54.304;8.826;2022-07-01T03:50:52;18.50;99.90
32769;DHT22;23049;54.304;8.826;2022-07-01T03:53:18;18.30;99.90
32769;DHT22;23049;54.304;8.826;2022-07-01T03:56:02;18.20;99.90
32769;DHT22;23049;54.304;8.826;2022-07-01T03:58:27;18.30;99.90
32769;DHT22;23049;54.304;8.826;2022-07-01T04:00:53;18.10;99.90
32769;DHT22;23049;54.304;8.826;2022-07-01T04:03:18;18.20;99.90
32769;DHT22;23049;54.304;8.826;2022-07-01T04:05:44;18.00;99.90
32769;DHT22;23049;54.304;8.826;2022-07-01T04:08:10;17.90;99.90
32769;DHT22;23049;54.304;8.826;2022-07-01T04:10:37;17.70;99.90
32769;DHT22;23049;54.304;8.826;2022-07-01T04:13:03;17.70;99.90
32769;DHT22;23049;54.304;8.826;2022-07-01T04:15:29;17.70;99.90
32769;DHT22;23049;54.304;8.826;2022-07-01T04:17:55;17.70;99.90
32769;DHT22;23049;54.304;8.826;2022-07-01T04:20:23;17.70;99.90
32769;DHT22;23049;54.304;8.826;2022-07-01T04:22:50;17.70;99.90
32769;DHT22;23049;54.304;8.826;2022-07-01T04:25:16;17.70;99.90
32769;DHT22;23049;54.304;8.826;2022-07-01T04:27:42;17.70;99.90
32769;DHT22;23049;54.304;8.826;2022-07-01T04:30:08;17.70;99.90
32769;DHT22;23049;54.304;8.826;2022-07-01T04:32:34;17.80;99.90
32769;DHT22;23049;54.304;8.826;2022-07-01T04:35:00;17.80;99.90
32769;DHT22;23049;54.304;8.826;2022-07-01T04:37:26;17.80;99.90
32769;DHT22;23049;54.304;8.826;2022-07-01T04:39:51;17.80;99.90
32769;DHT22;23049;54.304;8.826;2022-07-01T04:42:17;17.80;99.90
32769;DHT22;23049;54.304;8.826;2022-07-01T04:44:45;17.80;99.90
32769;DHT22;23049;54.304;8.826;2022-07-01T04:47:11;17.80;99.90
32769;DHT22;23049;54.304;8.826;2022-07-01T04:49:36;17.70;99.90
32769;DHT22;23049;54.304;8.826;2022-07-01T04:52:02;17.70;99.90
32769;DHT22;23049;54.304;8.826;2022-07-01T04:54:28;17.70;99.90
32769;DHT22;23049;54.304;8.826;2022-07-01T04:56:54;17.70;99.90
32769;DHT22;23049;54.304;8.826;2022-07-01T04:59:20;17.70;99.90
32769;DHT22;23049;54.304;8.826;2022-07-01T05:01:46;17.60;99.90
32769;DHT22;23049;54.304;8.826;2022-07-01T05:04:16;17.60;99.90
32769;DHT22;23049;54.304;8.826;2022-07-01T05:06:42;17.60;99.90
32769;DHT22;23049;54.304;8.826;2022-07-01T05:09:08;17.60;99.90
32769;DHT22;23049;54.304;8.826;2022-07-01T05:11:34;17.60;99.90
32769;DHT22;23049;54.304;8.826;2022-07-01T05:13:59;17.50;99.90
32769;DHT22;23049;54.304;8.826;2022-07-01T05:16:25;17.60;99.90
32769;DHT22;23049;54.304;8.826;2022-07-01T05:18:51;17.60;99.90
32769;DHT22;23049;54.304;8.826;2022-07-01T05:21:35;17.60;99.90
32769;DHT22;23049;54.304;8.826;2022-07-01T05:24:19;17.60;99.90
32769;DHT22;23049;54.304;8.826;2022-07-01T05:26:45;17.60;99.90
32769;DHT22;23049;54.304;8.826;2022-07-01T05:29:11;17.60;99.90
32769;DHT22;23049;54.304;8.826;2022-07-01T05:31:36;17.50;99.90
32769;DHT22;23049;54.304;8.826;2022-07-01T05:34:02;17.50;99.90
32769;DHT22;23049;54.304;8.826;2022-07-01T05:36:28;17.50;99.90
32769;DHT22;23049;54.304;8.826;2022-07-01T05:38:54;17.50;99.90
32769;DHT22;23049;54.304;8.826;2022-07-01T05:41:19;17.60;99.90
32769;DHT22;23049;54.304;8.826;2022-07-01T05:43:45;17.50;99.90
32769;DHT22;23049;54.304;8.826;2022-07-01T05:46:11;17.50;99.90
32769;DHT22;23049;54.304;8.826;2022-07-01T05:48:36;17.40;99.90
32769;DHT22;23049;54.304;8.826;2022-07-01T05:51:02;17.40;99.90
32769;DHT22;23049;54.304;8.826;2022-07-01T05:53:28;17.30;99.90
32769;DHT22;23049;54.304;8.826;2022-07-01T05:55:54;17.40;99.90
32769;DHT22;23049;54.304;8.826;2022-07-01T05:58:19;17.40;99.90
32769;DHT22;23049;54.304;8.826;2022-07-01T06:00:45;17.40;99.90
32769;DHT22;23049;54.304;8.826;2022-07-01T06:03:12;17.30;99.90
32769;DHT22;23049;54.304;8.826;2022-07-01T06:05:38;17.40;99.90
32769;DHT22;23049;54.304;8.826;2022-07-01T06:08:04;17.40;99.90
32769;DHT22;23049;54.304;8.826;2022-07-01T06:10:31;17.50;99.90
32769;DHT22;23049;54.304;8.826;2022-07-01T06:12:57;17.50;99.90
32769;DHT22;23049;54.304;8.826;2022-07-01T06:15:23;17.60;99.90
32769;DHT22;23049;54.304;8.826;2022-07-01T06:17:49;17.60;99.90
32769;DHT22;23049;54.304;8.826;2022-07-01T06:20:16;17.60;99.90
32769;DHT22;23049;54.304;8.826;2022-07-01T06:24:56;17.60;99.90
32769;DHT22;23049;54.304;8.826;2022-07-01T06:30:01;17.70;99.90
32769;DHT22;23049;54.304;8.826;2022-07-01T06:32:27;17.80;99.90
32769;DHT22;23049;54.304;8.826;2022-07-01T06:34:52;17.80;99.90
32769;DHT22;23049;54.304;8.826;2022-07-01T06:37:18;17.80;99.90
32769;DHT22;23049;54.304;8.826;2022-07-01T06:39:45;17.90;99.90
32769;DHT22;23049;54.304;8.826;2022-07-01T06:42:11;17.80;99.90
32769;DHT22;23049;54.304;8.826;2022-07-01T06:44:36;17.80;99.90
32769;DHT22;23049;54.304;8.826;2022-07-01T06:47:02;17.70;99.90
32769;DHT22;23049;54.304;8.826;2022-07-01T06:49:28;17.70;99.90
32769;DHT22;23049;54.304;8.826;2022-07-01T06:51:53;17.60;99.90
32769;DHT22;23049;54.304;8.826;2022-07-01T06:54:19;17.60;99.90
32769;DHT22;23049;54.304;8.826;2022-07-01T06:56:45;17.60;99.90
32769;DHT22;23049;54.304;8.826;2022-07-01T06:59:10;17.70;99.90
32769;DHT22;23049;54.304;8.826;2022-07-01T07:01:36;17.60;99.90
32769;DHT22;23049;54.304;8.826;2022-07-01T07:04:02;17.60;99.90
32769;DHT22;23049;54.304;8.826;2022-07-01T07:06:29;17.60;99.90
32769;DHT22;23049;54.304;8.826;2022-07-01T07:08:57;17.60;99.90
32769;DHT22;23049;54.304;8.826;2022-07-01T07:11:23;17.60;99.90
32769;DHT22;23049;54.304;8.826;2022-07-01T07:13:48;17.60;99.90
32769;DHT22;23049;54.304;8.826;2022-07-01T07:16:14;17.50;99.90
32769;DHT22;23049;54.304;8.826;2022-07-01T07:18:40;17.60;99.90
32769;DHT22;23049;54.304;8.826;2022-07-01T07:21:06;17.70;99.90
32769;DHT22;23049;54.304;8.826;2022-07-01T07:23:31;17.70;99.90
32769;DHT22;23049;54.304;8.826;2022-07-01T07:25:57;17.70;99.90
32769;DHT22;23049;54.304;8.826;2022-07-01T07:28:23;17.70;99.90
32769;DHT22;23049;54.304;8.826;2022-07-01T07:30:49;17.80;99.90
32769;DHT22;23049;54.304;8.826;2022-07-01T07:33:14;17.80;99.90
32769;DHT22;23049;54.304;8.826;2022-07-01T07:35:40;17.80;99.90
32769;DHT22;23049;54.304;8.826;2022-07-01T07:38:06;17.80;99.90
32769;DHT22;23049;54.304;8.826;2022-07-01T07:40:33;17.90;99.90
32769;DHT22;23049;54.304;8.826;2022-07-01T07:42:59;17.90;99.90
32769;DHT22;23049;54.304;8.826;2022-07-01T07:45:25;18.00;99.90
32769;DHT22;23049;54.304;8.826;2022-07-01T07:47:50;18.10;99.90
32769;DHT22;23049;54.304;8.826;2022-07-01T07:50:20;18.10;99.90
32769;DHT22;23049;54.304;8.826;2022-07-01T07:52:46;18.20;99.90
32769;DHT22;23049;54.304;8.826;2022-07-01T07:55:12;18.20;99.90
32769;DHT22;23049;54.304;8.826;2022-07-01T07:57:39;18.20;99.90
32769;DHT22;23049;54.304;8.826;2022-07-01T08:00:07;18.20;99.90
32769;DHT22;23049;54.304;8.826;2022-07-01T08:02:34;18.30;99.90
32769;DHT22;23049;54.304;8.826;2022-07-01T08:04:59;18.30;99.90
32769;DHT22;23049;54.304;8.826;2022-07-01T08:07:25;18.40;99.90
32769;DHT22;23049;54.304;8.826;2022-07-01T08:09:51;18.50;99.90
32769;DHT22;23049;54.304;8.826;2022-07-01T08:12:17;18.70;99.90
32769;DHT22;23049;54.304;8.826;2022-07-01T08:14:43;18.50;99.90
32769;DHT22;23049;54.304;8.826;2022-07-01T08:17:09;18.60;99.90
32769;DHT22;23049;54.304;8.826;2022-07-01T08:19:35;18.40;99.90
32769;DHT22;23049;54.304;8.826;2022-07-01T08:22:01;18.40;99.90
32769;DHT22;23049;54.304;8.826;2022-07-01T08:24:26;18.40;99.90
32769;DHT22;23049;54.304;8.826;2022-07-01T08:26:52;18.40;99.90
32769;DHT22;23049;54.304;8.826;2022-07-01T08:29:18;18.30;99.90
32769;DHT22;23049;54.304;8.826;2022-07-01T08:31:43;18.30;99.90
32769;DHT22;23049;54.304;8.826;2022-07-01T08:34:09;18.50;99.90
32769;DHT22;23049;54.304;8.826;2022-07-01T08:36:35;18.30;99.90
32769;DHT22;23049;54.304;8.826;2022-07-01T08:39:02;18.20;99.90
32769;DHT22;23049;54.304;8.826;2022-07-01T08:41:27;18.30;99.90
32769;DHT22;23049;54.304;8.826;2022-07-01T08:43:53;18.20;99.90
32769;DHT22;23049;54.304;8.826;2022-07-01T08:46:18;18.30;99.90
32769;DHT22;23049;54.304;8.826;2022-07-01T08:48:45;18.20;99.90
32769;DHT22;23049;54.304;8.826;2022-07-01T08:51:11;18.00;99.90
32769;DHT22;23049;54.304;8.826;2022-07-01T08:53:37;18.00;99.90
32769;DHT22;23049;54.304;8.826;2022-07-01T08:56:03;18.00;99.90
32769;DHT22;23049;54.304;8.826;2022-07-01T08:58:51;17.90;99.90
32769;DHT22;23049;54.304;8.826;2022-07-01T09:01:19;17.80;99.90
32769;DHT22;23049;54.304;8.826;2022-07-01T09:03:54;17.80;99.90
32769;DHT22;23049;54.304;8.826;2022-07-01T09:06:27;17.80;99.90
32769;DHT22;23049;54.304;8.826;2022-07-01T09:08:53;17.70;99.90
32769;DHT22;23049;54.304;8.826;2022-07-01T09:11:25;17.60;99.90
32769;DHT22;23049;54.304;8.826;2022-07-01T09:14:12;17.60;99.90
32769;DHT22;23049;54.304;8.826;2022-07-01T09:16:46;17.60;99.90
32769;DHT22;23049;54.304;8.826;2022-07-01T09:19:19;17.60;99.90
32769;DHT22;23049;54.304;8.826;2022-07-01T09:21:52;17.70;99.90
32769;DHT22;23049;54.304;8.826;2022-07-01T09:24:24;17.70;99.90
32769;DHT22;23049;54.304;8.826;2022-07-01T09:26:57;17.80;99.90
32769;DHT22;23049;54.304;8.826;2022-07-01T09:29:31;17.80;99.90
32769;DHT22;23049;54.304;8.826;2022-07-01T09:31:58;17.90;99.90
32769;DHT22;23049;54.304;8.826;2022-07-01T09:34:24;17.90;99.90
32769;DHT22;23049;54.304;8.826;2022-07-01T09:36:56;17.90;99.90
32769;DHT22;23049;54.304;8.826;2022-07-01T09:39:23;18.00;99.90
32769;DHT22;23049;54.304;8.826;2022-07-01T09:41:54;18.00;99.90
32769;DHT22;23049;54.304;8.826;2022-07-01T09:44:20;18.10;99.90
32769;DHT22;23049;54.304;8.826;2022-07-01T09:46:56;18.10;99.90
32769;DHT22;23049;54.304;8.826;2022-07-01T09:49:23;18.20;99.90
32769;DHT22;23049;54.304;8.826;2022-07-01T09:51:50;18.20;99.90
32769;DHT22;23049;54.304;8.826;2022-07-01T09:56:52;18.20;99.90
32769;DHT22;23049;54.304;8.826;2022-07-01T09:59:18;18.30;99.90
32769;DHT22;23049;54.304;8.826;2022-07-01T10:01:44;18.20;99.90
32769;DHT22;23049;54.304;8.826;2022-07-01T10:04:12;18.40;99.90
32769;DHT22;23049;54.304;8.826;2022-07-01T10:12:43;18.50;99.90
32769;DHT22;23049;54.304;8.826;2022-07-01T10:15:16;18.50;99.90
32769;DHT22;23049;54.304;8.826;2022-07-01T10:17:45;18.60;99.90
32769;DHT22;23049;54.304;8.826;2022-07-01T10:20:12;18.40;99.90
32769;DHT22;23049;54.304;8.826;2022-07-01T10:22:39;18.40;99.90
32769;DHT22;23049;54.304;8.826;2022-07-01T10:32:59;18.50;99.90
32769;DHT22;23049;54.304;8.826;2022-07-01T10:41:04;18.50;99.90
32769;DHT22;23049;54.304;8.826;2022-07-01T10:43:36;18.60;99.90
32769;DHT22;23049;54.304;8.826;2022-07-01T10:46:03;18.50;99.90
32769;DHT22;23049;54.304;8.826;2022-07-01T10:48:33;18.70;99.90
32769;DHT22;23049;54.304;8.826;2022-07-01T10:51:00;18.50;99.90
32769;DHT22;23049;54.304;8.826;2022-07-01T10:53:44;18.50;99.90
32769;DHT22;23049;54.304;8.826;2022-07-01T10:56:16;18.50;99.90
32769;DHT22;23049;54.304;8.826;2022-07-01T10:58:41;18.50;99.90
32769;DHT22;23049;54.304;8.826;2022-07-01T11:01:08;18.40;99.90
32769;DHT22;23049;54.304;8.826;2022-07-01T11:03:38;18.40;99.90
32769;DHT22;23049;54.304;8.826;2022-07-01T11:06:05;18.50;99.90
32769;DHT22;23049;54.304;8.826;2022-07-01T11:08:31;18.60;99.90
32769;DHT22;23049;54.304;8.826;2022-07-01T11:10:59;18.70;99.90
32769;DHT22;23049;54.304;8.826;2022-07-01T11:13:27;18.70;99.90
32769;DHT22;23049;54.304;8.826;2022-07-01T11:15:53;18.80;99.90
32769;DHT22;23049;54.304;8.826;2022-07-01T11:18:19;18.80;99.90
32769;DHT22;23049;54.304;8.826;2022-07-01T11:20:44;18.80;99.90
32769;DHT22;23049;54.304;8.826;2022-07-01T11:23:11;18.80;99.90
32769;DHT22;23049;54.304;8.826;2022-07-01T11:25:37;18.70;99.90
32769;DHT22;23049;54.304;8.826;2022-07-01T11:28:02;18.60;99.90
32769;DHT22;23049;54.304;8.826;2022-07-01T11:30:28;18.50;99.90
32769;DHT22;23049;54.304;8.826;2022-07-01T11:32:56;18.50;99.90
32769;DHT22;23049;54.304;8.826;2022-07-01T11:35:32;18.50;99.90
32769;DHT22;23049;54.304;8.826;2022-07-01T11:38:21;18.70;99.90
32769;DHT22;23049;54.304;8.826;2022-07-01T11:41:09;18.80;99.90
32769;DHT22;23049;54.304;8.826;2022-07-01T11:43:38;18.80;99.90
32769;DHT22;23049;54.304;8.826;2022-07-01T11:46:05;18.90;99.90
32769;DHT22;23049;54.304;8.826;2022-07-01T11:51:13;19.20;99.90
32769;DHT22;23049;54.304;8.826;2022-07-01T11:53:44;19.30;99.90
32769;DHT22;23049;54.304;8.826;2022-07-01T11:56:11;19.10;99.90
32769;DHT22;23049;54.304;8.826;2022-07-01T11:58:50;18.90;99.90
32769;DHT22;23049;54.304;8.826;2022-07-01T12:01:33;18.80;99.90
32769;DHT22;23049;54.304;8.826;2022-07-01T12:04:05;18.80;99.90
32769;DHT22;23049;54.304;8.826;2022-07-01T12:06:31;18.90;99.90
32769;DHT22;23049;54.304;8.826;2022-07-01T12:08:58;19.00;99.90
32769;DHT22;23049;54.304;8.826;2022-07-01T12:11:25;19.10;99.90
32769;DHT22;23049;54.304;8.826;2022-07-01T12:13:52;19.10;99.90
32769;DHT22;23049;54.304;8.826;2022-07-01T12:16:18;19.00;99.90
32769;DHT22;23049;54.304;8.826;2022-07-01T12:18:58;19.00;99.90
32769;DHT22;23049;54.304;8.826;2022-07-01T12:21:26;18.90;99.90
32769;DHT22;23049;54.304;8.826;2022-07-01T12:24:09;18.80;99.90
32769;DHT22;23049;54.304;8.826;2022-07-01T12:26:46;18.80;99.90
32769;DHT22;23049;54.304;8.826;2022-07-01T12:29:12;18.70;99.90
32769;DHT22;23049;54.304;8.826;2022-07-01T12:31:41;18.70;99.90
32769;DHT22;23049;54.304;8.826;2022-07-01T12:34:07;18.70;99.90
32769;DHT22;23049;54.304;8.826;2022-07-01T12:36:33;18.80;99.90
32769;DHT22;23049;54.304;8.826;2022-07-01T12:39:09;18.80;99.90
32769;DHT22;23049;54.304;8.826;2022-07-01T12:41:36;19.00;99.90
32769;DHT22;23049;54.304;8.826;2022-07-01T12:46:45;19.10;99.90
32769;DHT22;23049;54.304;8.826;2022-07-01T12:49:22;19.10;99.90
32769;DHT22;23049;54.304;8.826;2022-07-01T12:51:48;19.20;99.90
32769;DHT22;23049;54.304;8.826;2022-07-01T12:54:35;19.20;99.90
32769;DHT22;23049;54.304;8.826;2022-07-01T12:57:04;19.20;99.90
32769;DHT22;23049;54.304;8.826;2022-07-01T13:02:55;19.30;99.90
32769;DHT22;23049;54.304;8.826;2022-07-01T13:05:22;19.50;99.90
32769;DHT22;23049;54.304;8.826;2022-07-01T13:07:48;19.60;99.90
32769;DHT22;23049;54.304;8.826;2022-07-01T13:10:15;19.50;99.90
32769;DHT22;23049;54.304;8.826;2022-07-01T13:12:41;19.60;99.90
32769;DHT22;23049;54.304;8.826;2022-07-01T13:15:07;19.70;99.90
32769;DHT22;23049;54.304;8.826;2022-07-01T13:17:32;19.80;99.90
32769;DHT22;23049;54.304;8.826;2022-07-01T13:19:58;20.00;99.90
32769;DHT22;23049;54.304;8.826;2022-07-01T13:22:24;19.90;99.90
32769;DHT22;23049;54.304;8.826;2022-07-01T13:24:50;20.00;99.90
32769;DHT22;23049;54.304;8.826;2022-07-01T13:27:15;19.90;99.90
32769;DHT22;23049;54.304;8.826;2022-07-01T13:29:41;19.90;99.90
32769;DHT22;23049;54.304;8.826;2022-07-01T13:32:07;20.00;99.90
32769;DHT22;23049;54.304;8.826;2022-07-01T13:34:33;19.90;99.90
32769;DHT22;23049;54.304;8.826;2022-07-01T13:37:00;20.00;99.90
32769;DHT22;23049;54.304;8.826;2022-07-01T13:39:25;20.00;99.90
32769;DHT22;23049;54.304;8.826;2022-07-01T13:41:51;19.90;99.90
32769;DHT22;23049;54.304;8.826;2022-07-01T13:44:17;20.00;99.90
32769;DHT22;23049;54.304;8.826;2022-07-01T13:46:42;20.10;99.90
32769;DHT22;23049;54.304;8.826;2022-07-01T13:49:08;20.10;99.90
32769;DHT22;23049;54.304;8.826;2022-07-01T13:51:34;19.90;99.90
32769;DHT22;23049;54.304;8.826;2022-07-01T13:53:59;19.90;99.90
32769;DHT22;23049;54.304;8.826;2022-07-01T13:56:26;19.80;99.90
32769;DHT22;23049;54.304;8.826;2022-07-01T13:58:52;19.80;99.90
32769;DHT22;23049;54.304;8.826;2022-07-01T14:01:19;19.80;99.90
32769;DHT22;23049;54.304;8.826;2022-07-01T14:03:45;19.80;99.90
32769;DHT22;23049;54.304;8.826;2022-07-01T14:06:11;19.80;99.90
32769;DHT22;23049;54.304;8.826;2022-07-01T14:08:37;19.80;99.90
32769;DHT22;23049;54.304;8.826;2022-07-01T14:11:03;19.80;99.90
32769;DHT22;23049;54.304;8.826;2022-07-01T14:13:29;20.00;99.90
32769;DHT22;23049;54.304;8.826;2022-07-01T14:15:54;20.10;99.90
32769;DHT22;23049;54.304;8.826;2022-07-01T14:18:20;20.10;99.90
32769;DHT22;23049;54.304;8.826;2022-07-01T14:20:46;20.20;99.90
32769;DHT22;23049;54.304;8.826;2022-07-01T14:23:12;20.30;99.90
32769;DHT22;23049;54.304;8.826;2022-07-01T14:27:54;20.50;99.90
32769;DHT22;23049;54.304;8.826;2022-07-01T14:30:20;20.60;99.90
32769;DHT22;23049;54.304;8.826;2022-07-01T14:32:45;20.40;99.90
32769;DHT22;23049;54.304;8.826;2022-07-01T14:35:11;20.40;99.90
32769;DHT22;23049;54.304;8.826;2022-07-01T14:37:37;20.60;99.90
32769;DHT22;23049;54.304;8.826;2022-07-01T14:40:04;20.50;99.90
32769;DHT22;23049;54.304;8.826;2022-07-01T14:42:30;20.20;99.90
32769;DHT22;23049;54.304;8.826;2022-07-01T14:44:56;20.20;99.90
32769;DHT22;23049;54.304;8.826;2022-07-01T14:47:22;20.20;99.90
32769;DHT22;23049;54.304;8.826;2022-07-01T14:52:43;20.50;99.90
32769;DHT22;23049;54.304;8.826;2022-07-01T14:59:39;20.50;99.90
32769;DHT22;23049;54.304;8.826;2022-07-01T15:02:04;20.50;99.90
32769;DHT22;23049;54.304;8.826;2022-07-01T15:04:31;20.30;99.90
32769;DHT22;23049;54.304;8.826;2022-07-01T15:06:57;20.20;99.90
32769;DHT22;23049;54.304;8.826;2022-07-01T15:12:01;20.00;99.90
32769;DHT22;23049;54.304;8.826;2022-07-01T15:14:27;19.80;99.90
32769;DHT22;23049;54.304;8.826;2022-07-01T15:16:54;19.90;99.90
32769;DHT22;23049;54.304;8.826;2022-07-01T15:19:20;19.80;99.90
32769;DHT22;23049;54.304;8.826;2022-07-01T15:21:46;19.60;99.90
32769;DHT22;23049;54.304;8.826;2022-07-01T15:24:11;19.60;99.90
32769;DHT22;23049;54.304;8.826;2022-07-01T15:26:37;19.60;99.90
32769;DHT22;23049;54.304;8.826;2022-07-01T15:29:03;19.40;99.90
32769;DHT22;23049;54.304;8.826;2022-07-01T15:31:28;19.40;99.90
32769;DHT22;23049;54.304;8.826;2022-07-01T15:33:55;19.30;99.90
32769;DHT22;23049;54.304;8.826;2022-07-01T15:36:21;19.30;99.90
32769;DHT22;23049;54.304;8.826;2022-07-01T15:38:46;19.30;99.90
32769;DHT22;23049;54.304;8.826;2022-07-01T15:41:12;19.20;99.90
32769;DHT22;23049;54.304;8.826;2022-07-01T15:43:38;19.20;99.90
32769;DHT22;23049;54.304;8.826;2022-07-01T15:46:06;19.20;99.90
32769;DHT22;23049;54.304;8.826;2022-07-01T15:48:32;19.20;99.90
32769;DHT22;23049;54.304;8.826;2022-07-01T15:50:57;19.30;99.90
32769;DHT22;23049;54.304;8.826;2022-07-01T15:53:23;19.20;99.90
32769;DHT22;23049;54.304;8.826;2022-07-01T15:55:49;19.10;99.90
32769;DHT22;23049;54.304;8.826;2022-07-01T15:58:17;19.00;99.90
32769;DHT22;23049;54.304;8.826;2022-07-01T16:00:48;19.00;99.90
32769;DHT22;23049;54.304;8.826;2022-07-01T16:03:14;18.90;99.90
32769;DHT22;23049;54.304;8.826;2022-07-01T16:08:36;19.00;99.90
32769;DHT22;23049;54.304;8.826;2022-07-01T16:11:21;19.00;99.90
32769;DHT22;23049;54.304;8.826;2022-07-01T16:13:52;19.10;99.90
32769;DHT22;23049;54.304;8.826;2022-07-01T16:16:23;19.20;99.90
32769;DHT22;23049;54.304;8.826;2022-07-01T16:18:50;19.20;99.90
32769;DHT22;23049;54.304;8.826;2022-07-01T16:21:17;19.20;99.90